sensor_id;sensor_type;location;lat;lon;timestamp;pressure;altitude;pressure_sealevel;temperature;humidity
5651;BME280;40241;52.684;9.758;2023-05-07T00:00:15;101808.47;;;13.81;57.45
5651;BME280;40241;52.684;9.758;2023-05-07T00:02:43;101789.38;;;13.83;57.63
5651;BME280;40241;52.684;9.758;2023-05-07T00:05:09;101815.28;;;13.85;57.68
5651;BME280;40241;52.684;9.758;2023-05-07T00:07:35;101791.31;;;13.77;57.73
5651;BME280;40241;52.684;9.758;2023-05-07T00:10:01;101793.88;;;13.80;57.81
5651;BME280;40241;52.684;9.758;2023-05-07T00:12:26;101805.56;;;13.70;57.82
5651;BME280;40241;52.684;9.758;2023-05-07T00:14:51;101798.94;;;13.62;57.99
5651;BME280;40241;52.684;9.758;2023-05-07T00:17:17;101820.78;;;13.60;58.07
5651;BME280;40241;52.684;9.758;2023-05-07T00:19:42;101806.69;;;13.58;57.94
5651;BME280;40241;52.684;9.758;2023-05-07T00:22:08;101809.72;;;13.60;57.96
5651;BME280;40241;52.684;9.758;2023-05-07T00:24:33;101797.84;;;13.53;57.96
5651;BME280;40241;52.684;9.758;2023-05-07T00:26:58;101798.91;;;13.56;58.04
5651;BME280;40241;52.684;9.758;2023-05-07T00:29:23;101823.00;;;13.56;58.13
5651;BME280;40241;52.684;9.758;2023-05-07T00:31:49;101799.91;;;13.59;57.74
5651;BME280;40241;52.684;9.758;2023-05-07T00:34:15;101812.44;;;13.54;58.04
5651;BME280;40241;52.684;9.758;2023-05-07T00:36:41;101803.84;;;13.52;58.06
5651;BME280;40241;52.684;9.758;2023-05-07T00:39:06;101800.06;;;13.49;57.90
5651;BME280;40241;52.684;9.758;2023-05-07T00:41:31;101807.88;;;13.51;57.85
5651;BME280;40241;52.684;9.758;2023-05-07T00:43:57;101815.91;;;13.49;58.07
5651;BME280;40241;52.684;9.758;2023-05-07T00:46:23;101806.56;;;13.46;57.97
5651;BME280;40241;52.684;9.758;2023-05-07T00:48:50;101807.78;;;13.45;58.09
5651;BME280;40241;52.684;9.758;2023-05-07T00:51:17;101814.78;;;13.41;57.93
5651;BME280;40241;52.684;9.758;2023-05-07T00:53:43;101808.22;;;13.38;58.06
5651;BME280;40241;52.684;9.758;2023-05-07T00:56:08;101795.44;;;13.41;58.15
5651;BME280;40241;52.684;9.758;2023-05-07T00:58:34;101802.25;;;13.45;58.19
5651;BME280;40241;52.684;9.758;2023-05-07T01:01:00;101794.19;;;13.42;58.18
5651;BME280;40241;52.684;9.758;2023-05-07T01:03:25;101792.38;;;13.39;58.19
5651;BME280;40241;52.684;9.758;2023-05-07T01:05:52;101803.94;;;13.37;57.99
5651;BME280;40241;52.684;9.758;2023-05-07T01:08:18;101781.00;;;13.31;58.17
5651;BME280;40241;52.684;9.758;2023-05-07T01:10:44;101790.31;;;13.34;58.21
5651;BME280;40241;52.684;9.758;2023-05-07T01:13:11;101785.25;;;13.32;58.30
5651;BME280;40241;52.684;9.758;2023-05-07T01:15:37;101794.03;;;13.31;58.36
5651;BME280;40241;52.684;9.758;2023-05-07T01:18:03;101784.44;;;13.26;58.35
5651;BME280;40241;52.684;9.758;2023-05-07T01:20:29;101789.78;;;13.30;58.53
5651;BME280;40241;52.684;9.758;2023-05-07T01:22:55;101799.06;;;13.32;58.46
5651;BME280;40241;52.684;9.758;2023-05-07T01:25:21;101795.03;;;13.28;58.51
5651;BME280;40241;52.684;9.758;2023-05-07T01:27:47;101797.78;;;13.28;58.46
5651;BME280;40241;52.684;9.758;2023-05-07T01:30:13;101787.47;;;13.28;58.45
5651;BME280;40241;52.684;9.758;2023-05-07T01:35:10;101790.94;;;13.23;58.56
5651;BME280;40241;52.684;9.758;2023-05-07T01:37:37;101787.69;;;13.25;58.55
5651;BME280;40241;52.684;9.758;2023-05-07T01:40:03;101797.03;;;13.27;58.56
5651;BME280;40241;52.684;9.758;2023-05-07T01:42:29;101793.72;;;13.23;58.64
5651;BME280;40241;52.684;9.758;2023-05-07T01:44:54;101797.44;;;13.20;58.72
5651;BME280;40241;52.684;9.758;2023-05-07T01:47:20;101810.00;;;13.21;58.65
5651;BME280;40241;52.684;9.758;2023-05-07T01:49:46;101800.75;;;13.24;58.60
5651;BME280;40241;52.684;9.758;2023-05-07T01:52:11;101779.13;;;13.23;58.66
5651;BME280;40241;52.684;9.758;2023-05-07T01:54:37;101795.97;;;13.25;58.67
5651;BME280;40241;52.684;9.758;2023-05-07T01:57:02;101794.00;;;13.25;58.54
5651;BME280;40241;52.684;9.758;2023-05-07T01:59:28;101811.78;;;13.24;58.63
5651;BME280;40241;52.684;9.758;2023-05-07T02:01:53;101809.59;;;13.28;58.71
5651;BME280;40241;52.684;9.758;2023-05-07T02:04:18;101810.13;;;13.32;58.86
5651;BME280;40241;52.684;9.758;2023-05-07T02:06:44;101810.00;;;13.41;58.86
5651;BME280;40241;52.684;9.758;2023-05-07T02:09:09;101826.88;;;13.43;58.54
5651;BME280;40241;52.684;9.758;2023-05-07T02:11:34;101805.03;;;13.45;58.54
5651;BME280;40241;52.684;9.758;2023-05-07T02:14:00;101816.31;;;13.42;58.38
5651;BME280;40241;52.684;9.758;2023-05-07T02:16:25;101806.91;;;13.34;58.58
5651;BME280;40241;52.684;9.758;2023-05-07T02:18:50;101803.22;;;13.22;58.64
5651;BME280;40241;52.684;9.758;2023-05-07T02:21:16;101815.06;;;13.23;58.87
5651;BME280;40241;52.684;9.758;2023-05-07T02:23:41;101813.31;;;13.25;58.79
5651;BME280;40241;52.684;9.758;2023-05-07T02:26:06;101806.63;;;13.32;58.70
5651;BME280;40241;52.684;9.758;2023-05-07T02:28:32;101825.63;;;13.24;58.88
5651;BME280;40241;52.684;9.758;2023-05-07T02:30:58;101810.72;;;13.36;58.42
5651;BME280;40241;52.684;9.758;2023-05-07T02:33:24;101791.38;;;13.36;58.74
5651;BME280;40241;52.684;9.758;2023-05-07T02:35:50;101807.38;;;13.32;58.53
5651;BME280;40241;52.684;9.758;2023-05-07T02:38:17;101793.00;;;13.28;58.54
5651;BME280;40241;52.684;9.758;2023-05-07T02:40:42;101804.81;;;13.29;58.57
5651;BME280;40241;52.684;9.758;2023-05-07T02:43:08;101800.56;;;13.28;58.70
5651;BME280;40241;52.684;9.758;2023-05-07T02:45:33;101798.25;;;13.26;58.98
5651;BME280;40241;52.684;9.758;2023-05-07T02:47:58;101802.56;;;13.27;58.92
5651;BME280;40241;52.684;9.758;2023-05-07T02:50:24;101804.56;;;13.27;58.75
5651;BME280;40241;52.684;9.758;2023-05-07T02:52:50;101807.81;;;13.25;58.69
5651;BME280;40241;52.684;9.758;2023-05-07T02:55:15;101807.81;;;13.25;58.67
5651;BME280;40241;52.684;9.758;2023-05-07T02:57:41;101816.56;;;13.24;58.74
5651;BME280;40241;52.684;9.758;2023-05-07T03:00:24;101814.28;;;13.22;59.47
5651;BME280;40241;52.684;9.758;2023-05-07T03:02:50;101804.94;;;13.20;58.72
5651;BME280;40241;52.684;9.758;2023-05-07T03:05:15;101812.06;;;13.26;58.72
5651;BME280;40241;52.684;9.758;2023-05-07T03:07:40;101794.88;;;13.17;58.75
5651;BME280;40241;52.684;9.758;2023-05-07T03:10:10;101786.00;;;13.13;58.78
5651;BME280;40241;52.684;9.758;2023-05-07T03:12:35;101816.41;;;13.13;58.83
5651;BME280;40241;52.684;9.758;2023-05-07T03:15:00;101797.56;;;13.11;59.01
5651;BME280;40241;52.684;9.758;2023-05-07T03:17:26;101795.84;;;13.14;58.91
5651;BME280;40241;52.684;9.758;2023-05-07T03:19:51;101788.38;;;13.20;58.77
5651;BME280;40241;52.684;9.758;2023-05-07T03:22:16;101776.09;;;13.21;58.87
5651;BME280;40241;52.684;9.758;2023-05-07T03:24:42;101783.59;;;13.20;58.65
5651;BME280;40241;52.684;9.758;2023-05-07T03:27:07;101797.38;;;13.15;58.87
5651;BME280;40241;52.684;9.758;2023-05-07T03:29:32;101776.69;;;13.10;59.02
5651;BME280;40241;52.684;9.758;2023-05-07T03:31:58;101795.34;;;13.15;59.01
5651;BME280;40241;52.684;9.758;2023-05-07T03:34:23;101796.03;;;13.10;58.92
5651;BME280;40241;52.684;9.758;2023-05-07T03:36:49;101792.69;;;13.06;59.12
5651;BME280;40241;52.684;9.758;2023-05-07T03:39:14;101832.44;;;13.09;59.06
5651;BME280;40241;52.684;9.758;2023-05-07T03:41:40;101801.56;;;13.10;58.96
5651;BME280;40241;52.684;9.758;2023-05-07T03:44:05;101806.34;;;13.10;59.31
5651;BME280;40241;52.684;9.758;2023-05-07T03:46:31;101804.63;;;13.12;59.08
5651;BME280;40241;52.684;9.758;2023-05-07T03:48:57;101809.66;;;13.14;59.14
5651;BME280;40241;52.684;9.758;2023-05-07T03:51:23;101800.88;;;13.15;59.07
5651;BME280;40241;52.684;9.758;2023-05-07T03:53:48;101813.06;;;13.23;58.78
5651;BME280;40241;52.684;9.758;2023-05-07T03:56:14;101798.75;;;13.25;58.99
5651;BME280;40241;52.684;9.758;2023-05-07T03:58:39;101798.75;;;13.25;58.86
5651;BME280;40241;52.684;9.758;2023-05-07T04:01:04;101797.44;;;13.20;58.89
5651;BME280;40241;52.684;9.758;2023-05-07T04:03:30;101804.00;;;13.23;58.97
5651;BME280;40241;52.684;9.758;2023-05-07T04:05:55;101812.78;;;13.21;58.98
5651;BME280;40241;52.684;9.758;2023-05-07T04:08:20;101809.91;;;13.16;59.08
5651;BME280;40241;52.684;9.758;2023-05-07T04:10:45;101800.03;;;13.09;59.16
5651;BME280;40241;52.684;9.758;2023-05-07T04:13:11;101817.56;;;13.06;59.24
5651;BME280;40241;52.684;9.758;2023-05-07T04:15:36;101802.25;;;13.05;59.17
5651;BME280;40241;52.684;9.758;2023-05-07T04:18:01;101814.81;;;13.06;59.09
5651;BME280;40241;52.684;9.758;2023-05-07T04:20:27;101826.53;;;13.01;59.20
5651;BME280;40241;52.684;9.758;2023-05-07T04:22:52;101816.69;;;13.00;59.20
5651;BME280;40241;52.684;9.758;2023-05-07T04:25:17;101821.69;;;12.96;59.27
5651;BME280;40241;52.684;9.758;2023-05-07T04:27:43;101820.44;;;12.97;59.33
5651;BME280;40241;52.684;9.758;2023-05-07T04:30:09;101819.75;;;13.02;59.36
5651;BME280;40241;52.684;9.758;2023-05-07T04:32:34;101833.41;;;13.06;59.12
5651;BME280;40241;52.684;9.758;2023-05-07T04:35:01;101835.84;;;13.04;59.17
5651;BME280;40241;52.684;9.758;2023-05-07T04:37:26;101832.81;;;13.02;59.08
5651;BME280;40241;52.684;9.758;2023-05-07T04:39:52;101836.25;;;12.97;59.12
5651;BME280;40241;52.684;9.758;2023-05-07T04:42:18;101818.69;;;13.00;59.19
5651;BME280;40241;52.684;9.758;2023-05-07T04:44:44;101818.16;;;12.96;59.32
5651;BME280;40241;52.684;9.758;2023-05-07T04:47:11;101838.81;;;13.00;59.27
5651;BME280;40241;52.684;9.758;2023-05-07T04:49:37;101828.31;;;13.04;59.08
5651;BME280;40241;52.684;9.758;2023-05-07T04:52:03;101834.16;;;13.06;59.17
5651;BME280;40241;52.684;9.758;2023-05-07T04:54:28;101843.69;;;13.05;59.00
5651;BME280;40241;52.684;9.758;2023-05-07T04:56:54;101846.91;;;13.04;59.15
5651;BME280;40241;52.684;9.758;2023-05-07T04:59:20;101846.44;;;13.05;59.12
5651;BME280;40241;52.684;9.758;2023-05-07T05:01:45;101861.03;;;13.06;59.08
5651;BME280;40241;52.684;9.758;2023-05-07T05:04:10;101871.09;;;13.09;59.34
5651;BME280;40241;52.684;9.758;2023-05-07T05:06:36;101852.81;;;13.11;59.06
5651;BME280;40241;52.684;9.758;2023-05-07T05:09:01;101872.44;;;13.13;59.19
5651;BME280;40241;52.684;9.758;2023-05-07T05:11:26;101872.81;;;13.06;59.10
5651;BME280;40241;52.684;9.758;2023-05-07T05:13:52;101915.53;;;13.05;59.25
5651;BME280;40241;52.684;9.758;2023-05-07T05:16:17;101876.34;;;13.07;59.24
5651;BME280;40241;52.684;9.758;2023-05-07T05:18:42;101854.81;;;13.11;59.05
5651;BME280;40241;52.684;9.758;2023-05-07T05:21:08;101873.88;;;13.09;59.07
5651;BME280;40241;52.684;9.758;2023-05-07T05:23:33;101871.78;;;13.04;59.11
5651;BME280;40241;52.684;9.758;2023-05-07T05:25:58;101856.25;;;13.06;59.26
5651;BME280;40241;52.684;9.758;2023-05-07T05:28:24;101860.06;;;13.09;59.07
5651;BME280;40241;52.684;9.758;2023-05-07T05:30:49;101869.88;;;13.10;58.91
5651;BME280;40241;52.684;9.758;2023-05-07T05:33:15;101873.69;;;13.12;59.05
5651;BME280;40241;52.684;9.758;2023-05-07T05:35:41;101871.22;;;13.14;59.10
5651;BME280;40241;52.684;9.758;2023-05-07T05:38:07;101852.91;;;13.17;59.02
5651;BME280;40241;52.684;9.758;2023-05-07T05:40:32;101876.63;;;13.23;59.04
5651;BME280;40241;52.684;9.758;2023-05-07T05:42:58;101864.78;;;13.23;58.86
5651;BME280;40241;52.684;9.758;2023-05-07T05:45:24;101901.28;;;13.27;58.89
5651;BME280;40241;52.684;9.758;2023-05-07T05:47:49;101891.44;;;13.26;58.90
5651;BME280;40241;52.684;9.758;2023-05-07T05:50:15;101879.09;;;13.21;58.90
5651;BME280;40241;52.684;9.758;2023-05-07T05:52:40;101890.44;;;13.23;58.96
5651;BME280;40241;52.684;9.758;2023-05-07T05:55:06;101886.69;;;13.26;58.67
5651;BME280;40241;52.684;9.758;2023-05-07T05:57:32;101880.50;;;13.31;58.83
5651;BME280;40241;52.684;9.758;2023-05-07T05:59:57;101886.03;;;13.31;58.53
5651;BME280;40241;52.684;9.758;2023-05-07T06:02:22;101899.84;;;13.31;58.76
5651;BME280;40241;52.684;9.758;2023-05-07T06:04:48;101886.50;;;13.30;58.53
5651;BME280;40241;52.684;9.758;2023-05-07T06:07:13;101893.66;;;13.36;58.50
5651;BME280;40241;52.684;9.758;2023-05-07T06:09:39;101873.16;;;13.28;58.45
5651;BME280;40241;52.684;9.758;2023-05-07T06:12:04;101883.03;;;13.35;58.54
5651;BME280;40241;52.684;9.758;2023-05-07T06:14:29;101875.78;;;13.37;58.37
5651;BME280;40241;52.684;9.758;2023-05-07T06:16:55;101884.91;;;13.43;58.51
5651;BME280;40241;52.684;9.758;2023-05-07T06:19:20;101881.19;;;13.46;58.31
5651;BME280;40241;52.684;9.758;2023-05-07T06:21:49;101919.13;;;13.46;58.04
5651;BME280;40241;52.684;9.758;2023-05-07T06:24:14;101881.75;;;13.50;58.23
5651;BME280;40241;52.684;9.758;2023-05-07T06:26:40;101891.59;;;13.51;58.11
5651;BME280;40241;52.684;9.758;2023-05-07T06:29:06;101894.63;;;13.53;58.06
5651;BME280;40241;52.684;9.758;2023-05-07T06:31:31;101903.25;;;13.61;58.06
5651;BME280;40241;52.684;9.758;2023-05-07T06:33:57;101886.38;;;13.59;58.05
5651;BME280;40241;52.684;9.758;2023-05-07T06:36:22;101902.78;;;13.63;58.21
5651;BME280;40241;52.684;9.758;2023-05-07T06:38:48;101888.53;;;13.70;58.21
5651;BME280;40241;52.684;9.758;2023-05-07T06:41:13;101890.91;;;13.77;57.99
5651;BME280;40241;52.684;9.758;2023-05-07T06:43:38;101899.47;;;13.79;57.96
5651;BME280;40241;52.684;9.758;2023-05-07T06:46:04;101886.94;;;13.83;57.90
5651;BME280;40241;52.684;9.758;2023-05-07T06:48:30;101900.88;;;13.89;57.70
5651;BME280;40241;52.684;9.758;2023-05-07T06:50:55;101887.56;;;13.93;57.82
5651;BME280;40241;52.684;9.758;2023-05-07T06:53:22;101866.41;;;13.90;57.73
5651;BME280;40241;52.684;9.758;2023-05-07T06:55:48;101879.81;;;13.97;57.77
5651;BME280;40241;52.684;9.758;2023-05-07T06:58:13;101876.28;;;13.96;57.42
5651;BME280;40241;52.684;9.758;2023-05-07T07:00:39;101878.56;;;13.98;57.55
5651;BME280;40241;52.684;9.758;2023-05-07T07:03:05;101875.66;;;14.07;57.78
5651;BME280;40241;52.684;9.758;2023-05-07T07:05:31;101877.03;;;14.17;57.76
5651;BME280;40241;52.684;9.758;2023-05-07T07:07:56;101885.91;;;14.26;57.54
5651;BME280;40241;52.684;9.758;2023-05-07T07:10:22;101901.66;;;14.35;57.38
5651;BME280;40241;52.684;9.758;2023-05-07T07:12:48;101907.19;;;14.35;57.15
5651;BME280;40241;52.684;9.758;2023-05-07T07:15:14;101887.63;;;14.44;57.15
5651;BME280;40241;52.684;9.758;2023-05-07T07:17:40;101880.16;;;14.50;56.93
5651;BME280;40241;52.684;9.758;2023-05-07T07:20:06;101903.84;;;14.51;56.97
5651;BME280;40241;52.684;9.758;2023-05-07T07:22:31;101896.28;;;14.52;56.96
5651;BME280;40241;52.684;9.758;2023-05-07T07:24:57;101898.56;;;14.53;56.76
5651;BME280;40241;52.684;9.758;2023-05-07T07:27:22;101901.59;;;14.55;56.91
5651;BME280;40241;52.684;9.758;2023-05-07T07:29:48;101906.16;;;14.58;56.88
5651;BME280;40241;52.684;9.758;2023-05-07T07:32:13;101907.66;;;14.59;56.88
5651;BME280;40241;52.684;9.758;2023-05-07T07:34:38;101907.19;;;14.61;57.00
5651;BME280;40241;52.684;9.758;2023-05-07T07:37:04;101925.31;;;14.62;56.76
5651;BME280;40241;52.684;9.758;2023-05-07T07:39:32;101921.09;;;14.66;56.82
5651;BME280;40241;52.684;9.758;2023-05-07T07:41:57;101920.13;;;14.69;56.64
5651;BME280;40241;52.684;9.758;2023-05-07T07:44:22;101925.44;;;14.73;56.74
5651;BME280;40241;52.684;9.758;2023-05-07T07:46:48;101918.84;;;14.70;56.57
5651;BME280;40241;52.684;9.758;2023-05-07T07:49:14;101920.38;;;14.71;56.73
5651;BME280;40241;52.684;9.758;2023-05-07T07:51:39;101919.09;;;14.67;56.53
5651;BME280;40241;52.684;9.758;2023-05-07T07:54:05;101934.19;;;14.66;56.51
5651;BME280;40241;52.684;9.758;2023-05-07T07:56:32;101944.44;;;14.60;56.71
5651;BME280;40241;52.684;9.758;2023-05-07T07:58:58;101926.13;;;14.68;56.66
5651;BME280;40241;52.684;9.758;2023-05-07T08:01:23;101928.44;;;14.69;56.64
5651;BME280;40241;52.684;9.758;2023-05-07T08:03:49;101939.00;;;14.71;56.46
5651;BME280;40241;52.684;9.758;2023-05-07T08:06:15;101930.28;;;14.78;56.46
5651;BME280;40241;52.684;9.758;2023-05-07T08:08:40;101928.81;;;14.82;56.55
5651;BME280;40241;52.684;9.758;2023-05-07T08:11:06;101929.34;;;14.86;56.44
5651;BME280;40241;52.684;9.758;2023-05-07T08:13:31;101933.34;;;14.85;56.34
5651;BME280;40241;52.684;9.758;2023-05-07T08:15:56;101924.31;;;14.90;56.26
5651;BME280;40241;52.684;9.758;2023-05-07T08:18:22;101927.63;;;14.94;56.18
5651;BME280;40241;52.684;9.758;2023-05-07T08:20:49;101940.50;;;14.97;56.08
5651;BME280;40241;52.684;9.758;2023-05-07T08:23:15;101923.34;;;14.93;56.29
5651;BME280;40241;52.684;9.758;2023-05-07T08:25:40;101932.03;;;15.07;55.91
5651;BME280;40241;52.684;9.758;2023-05-07T08:28:07;101920.47;;;15.14;55.87
5651;BME280;40241;52.684;9.758;2023-05-07T08:30:33;101922.72;;;15.10;55.95
5651;BME280;40241;52.684;9.758;2023-05-07T08:32:58;101939.59;;;15.12;56.00
5651;BME280;40241;52.684;9.758;2023-05-07T08:35:23;101931.78;;;15.10;56.00
5651;BME280;40241;52.684;9.758;2023-05-07T08:37:50;101937.38;;;15.16;55.98
5651;BME280;40241;52.684;9.758;2023-05-07T08:40:16;101931.88;;;15.21;56.02
5651;BME280;40241;52.684;9.758;2023-05-07T08:42:41;101945.25;;;15.23;55.84
5651;BME280;40241;52.684;9.758;2023-05-07T08:45:09;101933.97;;;15.32;55.77
5651;BME280;40241;52.684;9.758;2023-05-07T08:47:47;101930.47;;;15.37;55.51
5651;BME280;40241;52.684;9.758;2023-05-07T08:50:15;101932.31;;;15.45;55.56
5651;BME280;40241;52.684;9.758;2023-05-07T08:52:41;101951.50;;;15.49;55.42
5651;BME280;40241;52.684;9.758;2023-05-07T08:55:07;101952.06;;;15.53;55.62
5651;BME280;40241;52.684;9.758;2023-05-07T08:57:33;101948.06;;;15.65;55.58
5651;BME280;40241;52.684;9.758;2023-05-07T08:59:58;101947.81;;;15.68;55.55
5651;BME280;40241;52.684;9.758;2023-05-07T09:02:24;101965.56;;;15.77;55.49
5651;BME280;40241;52.684;9.758;2023-05-07T09:04:49;101946.59;;;15.69;55.34
5651;BME280;40241;52.684;9.758;2023-05-07T09:07:16;102007.91;;;15.77;55.50
5651;BME280;40241;52.684;9.758;2023-05-07T09:09:41;101950.44;;;15.83;55.07
5651;BME280;40241;52.684;9.758;2023-05-07T09:12:08;101945.88;;;15.80;55.02
5651;BME280;40241;52.684;9.758;2023-05-07T09:14:35;101950.44;;;15.83;54.99
5651;BME280;40241;52.684;9.758;2023-05-07T09:17:00;101954.00;;;15.89;54.80
5651;BME280;40241;52.684;9.758;2023-05-07T09:19:26;101952.22;;;15.86;55.10
5651;BME280;40241;52.684;9.758;2023-05-07T09:22:03;101991.59;;;15.90;54.94
5651;BME280;40241;52.684;9.758;2023-05-07T09:24:30;101956.06;;;16.00;54.96
5651;BME280;40241;52.684;9.758;2023-05-07T09:27:00;101970.97;;;16.02;54.96
5651;BME280;40241;52.684;9.758;2023-05-07T09:29:26;101951.78;;;16.04;54.67
5651;BME280;40241;52.684;9.758;2023-05-07T09:31:54;101958.06;;;15.99;54.32
5651;BME280;40241;52.684;9.758;2023-05-07T09:34:19;101961.91;;;16.07;54.55
5651;BME280;40241;52.684;9.758;2023-05-07T09:36:45;101956.09;;;16.11;54.65
5651;BME280;40241;52.684;9.758;2023-05-07T09:39:10;101964.94;;;16.09;54.43
5651;BME280;40241;52.684;9.758;2023-05-07T09:41:46;101954.41;;;16.24;54.23
5651;BME280;40241;52.684;9.758;2023-05-07T09:44:15;101972.84;;;16.38;54.65
5651;BME280;40241;52.684;9.758;2023-05-07T09:46:42;101953.75;;;16.57;54.47
5651;BME280;40241;52.684;9.758;2023-05-07T09:49:12;101956.03;;;16.70;53.95
5651;BME280;40241;52.684;9.758;2023-05-07T09:51:48;101958.81;;;16.70;53.28
5651;BME280;40241;52.684;9.758;2023-05-07T09:54:14;101954.53;;;16.74;54.03
5651;BME280;40241;52.684;9.758;2023-05-07T09:56:40;101964.66;;;16.83;53.56
5651;BME280;40241;52.684;9.758;2023-05-07T09:59:07;101951.25;;;16.87;53.52
5651;BME280;40241;52.684;9.758;2023-05-07T10:01:35;101966.69;;;16.93;53.02
5651;BME280;40241;52.684;9.758;2023-05-07T10:04:02;101964.91;;;16.96;53.46
5651;BME280;40241;52.684;9.758;2023-05-07T10:06:29;101952.25;;;17.06;53.15
5651;BME280;40241;52.684;9.758;2023-05-07T10:08:55;101936.09;;;17.10;53.07
5651;BME280;40241;52.684;9.758;2023-05-07T10:11:21;101953.28;;;17.25;53.41
5651;BME280;40241;52.684;9.758;2023-05-07T10:13:47;101942.38;;;17.55;53.18
5651;BME280;40241;52.684;9.758;2023-05-07T10:16:13;101958.78;;;17.75;52.59
5651;BME280;40241;52.684;9.758;2023-05-07T10:18:40;101945.38;;;17.73;52.30
5651;BME280;40241;52.684;9.758;2023-05-07T10:21:16;101939.59;;;17.60;52.33
5651;BME280;40241;52.684;9.758;2023-05-07T10:23:45;101945.16;;;17.60;52.47
5651;BME280;40241;52.684;9.758;2023-05-07T10:26:12;101948.94;;;17.63;52.54
5651;BME280;40241;52.684;9.758;2023-05-07T10:28:39;101948.94;;;17.68;52.10
5651;BME280;40241;52.684;9.758;2023-05-07T10:34:10;101944.53;;;17.89;52.05
5651;BME280;40241;52.684;9.758;2023-05-07T10:36:37;101937.72;;;17.90;52.06
5651;BME280;40241;52.684;9.758;2023-05-07T10:39:02;101936.69;;;17.93;51.76
5651;BME280;40241;52.684;9.758;2023-05-07T10:41:28;101955.19;;;17.85;51.78
5651;BME280;40241;52.684;9.758;2023-05-07T10:43:53;101951.41;;;17.83;51.86
5651;BME280;40241;52.684;9.758;2023-05-07T10:46:20;101954.44;;;17.85;51.87
5651;BME280;40241;52.684;9.758;2023-05-07T10:49:12;101949.13;;;17.81;51.26
5651;BME280;40241;52.684;9.758;2023-05-07T10:51:38;101963.31;;;17.83;51.62
5651;BME280;40241;52.684;9.758;2023-05-07T10:56:35;101960.69;;;18.02;51.64
5651;BME280;40241;52.684;9.758;2023-05-07T11:04:20;101971.00;;;18.70;51.41
5651;BME280;40241;52.684;9.758;2023-05-07T11:15:11;101967.25;;;19.57;49.43
5651;BME280;40241;52.684;9.758;2023-05-07T11:18:05;101962.25;;;19.74;48.10
5651;BME280;40241;52.684;9.758;2023-05-07T11:20:47;101953.22;;;19.86;47.82
5651;BME280;40241;52.684;9.758;2023-05-07T11:26:10;101948.47;;;20.18;47.62
5651;BME280;40241;52.684;9.758;2023-05-07T11:28:37;101961.31;;;20.08;48.49
5651;BME280;40241;52.684;9.758;2023-05-07T11:31:03;101968.81;;;20.00;48.55
5651;BME280;40241;52.684;9.758;2023-05-07T11:33:30;101947.41;;;20.03;48.71
5651;BME280;40241;52.684;9.758;2023-05-07T11:35:56;101945.13;;;20.26;48.69
5651;BME280;40241;52.684;9.758;2023-05-07T11:38:22;101962.03;;;20.52;48.71
5651;BME280;40241;52.684;9.758;2023-05-07T11:40:49;101955.34;;;20.73;48.07
5651;BME280;40241;52.684;9.758;2023-05-07T11:43:14;101953.25;;;20.92;47.87
5651;BME280;40241;52.684;9.758;2023-05-07T11:45:40;101949.38;;;21.14;47.69
5651;BME280;40241;52.684;9.758;2023-05-07T11:48:05;101950.81;;;21.34;47.39
5651;BME280;40241;52.684;9.758;2023-05-07T11:50:31;101964.72;;;21.52;47.02
5651;BME280;40241;52.684;9.758;2023-05-07T11:52:56;101939.84;;;21.62;46.73
5651;BME280;40241;52.684;9.758;2023-05-07T11:55:24;101934.03;;;21.60;46.75
5651;BME280;40241;52.684;9.758;2023-05-07T11:57:50;101949.94;;;21.52;46.91
5651;BME280;40241;52.684;9.758;2023-05-07T12:00:16;101936.16;;;21.54;46.62
5651;BME280;40241;52.684;9.758;2023-05-07T12:02:42;101947.06;;;21.44;46.42
5651;BME280;40241;52.684;9.758;2023-05-07T12:05:07;101950.16;;;21.54;46.48
5651;BME280;40241;52.684;9.758;2023-05-07T12:07:34;101963.09;;;21.57;46.16
5651;BME280;40241;52.684;9.758;2023-05-07T12:10:04;101958.56;;;21.41;45.37
5651;BME280;40241;52.684;9.758;2023-05-07T12:12:30;102001.72;;;21.32;46.38
5651;BME280;40241;52.684;9.758;2023-05-07T12:14:55;101950.16;;;21.28;46.21
5651;BME280;40241;52.684;9.758;2023-05-07T12:17:20;101951.34;;;21.32;46.26
5651;BME280;40241;52.684;9.758;2023-05-07T12:19:46;101956.66;;;21.49;46.46
5651;BME280;40241;52.684;9.758;2023-05-07T12:22:12;101947.69;;;21.77;46.20
5651;BME280;40241;52.684;9.758;2023-05-07T12:24:49;101949.09;;;21.96;44.05
5651;BME280;40241;52.684;9.758;2023-05-07T12:27:16;101938.97;;;21.93;45.84
5651;BME280;40241;52.684;9.758;2023-05-07T12:29:49;101939.38;;;21.71;44.51
5651;BME280;40241;52.684;9.758;2023-05-07T12:32:21;101962.69;;;21.53;45.11
5651;BME280;40241;52.684;9.758;2023-05-07T12:34:49;101964.59;;;21.45;45.49
5651;BME280;40241;52.684;9.758;2023-05-07T12:37:15;101970.06;;;21.24;45.46
5651;BME280;40241;52.684;9.758;2023-05-07T12:40:06;101954.00;;;21.12;45.14
5651;BME280;40241;52.684;9.758;2023-05-07T12:42:39;101955.28;;;21.11;44.98
5651;BME280;40241;52.684;9.758;2023-05-07T12:45:25;101949.38;;;21.14;43.43
5651;BME280;40241;52.684;9.758;2023-05-07T12:47:51;101960.03;;;21.16;45.80
5651;BME280;40241;52.684;9.758;2023-05-07T12:50:16;101965.97;;;20.93;45.97
5651;BME280;40241;52.684;9.758;2023-05-07T12:52:43;101956.25;;;20.81;46.19
5651;BME280;40241;52.684;9.758;2023-05-07T12:55:12;101966.84;;;20.70;45.90
5651;BME280;40241;52.684;9.758;2023-05-07T12:57:40;101953.03;;;20.59;46.40
5651;BME280;40241;52.684;9.758;2023-05-07T13:00:06;101950.84;;;20.52;46.41
5651;BME280;40241;52.684;9.758;2023-05-07T13:02:33;101963.53;;;20.34;46.47
5651;BME280;40241;52.684;9.758;2023-05-07T13:04:59;101961.94;;;20.20;46.11
5651;BME280;40241;52.684;9.758;2023-05-07T13:07:25;101958.44;;;20.14;46.74
5651;BME280;40241;52.684;9.758;2023-05-07T13:09:50;101976.66;;;20.02;46.52
5651;BME280;40241;52.684;9.758;2023-05-07T13:12:15;101977.47;;;19.97;46.77
5651;BME280;40241;52.684;9.758;2023-05-07T13:14:41;101975.25;;;19.90;46.60
5651;BME280;40241;52.684;9.758;2023-05-07T13:17:06;101967.13;;;19.92;46.71
5651;BME280;40241;52.684;9.758;2023-05-07T13:19:32;101971.50;;;19.87;46.64